createdAt,value
2022-09-28T00:02:22.102Z,97.54
2022-09-28T00:04:49.980Z,98.23
2022-09-28T00:07:19.132Z,97.77
2022-09-28T00:09:46.894Z,97.70
2022-09-28T00:12:15.185Z,98.31
2022-09-28T00:14:44.557Z,97.83
2022-09-28T00:17:12.766Z,98.02
2022-09-28T00:19:40.996Z,98.33
2022-09-28T00:22:08.779Z,98.37
2022-09-28T00:24:37.988Z,97.81
2022-09-28T00:27:06.118Z,97.83
2022-09-28T00:29:34.957Z,97.69
2022-09-28T00:32:03.962Z,97.96
2022-09-28T00:34:33.318Z,98.51
2022-09-28T00:37:01.581Z,98.64
2022-09-28T00:39:31.519Z,98.36
2022-09-28T00:42:00.802Z,98.46
2022-09-28T00:44:49.774Z,98.24
2022-09-28T00:47:20.818Z,97.76
2022-09-28T00:49:50.882Z,98.49
2022-09-28T00:52:21.088Z,98.86
2022-09-28T00:54:49.155Z,98.14
2022-09-28T00:57:18.508Z,98.61
2022-09-28T00:59:46.551Z,98.43
2022-09-28T01:02:14.979Z,98.41
2022-09-28T01:04:42.822Z,98.81
2022-09-28T01:07:11.093Z,98.63
2022-09-28T01:09:40.619Z,98.71
2022-09-28T01:12:08.644Z,98.70
2022-09-28T01:14:38.252Z,98.72
2022-09-28T01:17:09.330Z,98.85
2022-09-28T01:20:05.417Z,98.87
2022-09-28T01:22:46.950Z,98.97
2022-09-28T01:25:25.684Z,99.33
2022-09-28T01:27:57.226Z,99.31
2022-09-28T01:30:25.295Z,99.05
2022-09-28T01:32:56.963Z,98.88
2022-09-28T01:35:28.016Z,99.60
2022-09-28T01:37:57.977Z,98.98
2022-09-28T01:40:27.255Z,99.50
2022-09-28T01:43:00.011Z,99.83
2022-09-28T01:45:34.280Z,99.31
2022-09-28T01:48:04.381Z,99.86
2022-09-28T01:50:36.136Z,99.54
2022-09-28T01:53:08.110Z,99.35
2022-09-28T01:55:38.287Z,99.42
2022-09-28T01:58:11.492Z,99.29
2022-09-28T02:00:42.023Z,99.74
2022-09-28T02:03:13.446Z,99.31
2022-09-28T02:05:43.950Z,99.42
2022-09-28T02:08:15.013Z,99.39
2022-09-28T02:10:44.830Z,99.19
2022-09-28T02:13:17.254Z,99.48
2022-09-28T02:15:47.782Z,99.76
2022-09-28T02:18:15.786Z,99.32
2022-09-28T02:20:47.714Z,99.46
2022-09-28T02:23:16.312Z,99.92
2022-09-28T02:25:46.010Z,99.96
2022-09-28T02:28:15.217Z,100.00
2022-09-28T02:30:43.987Z,99.81
2022-09-28T02:33:13.809Z,99.92
2022-09-28T02:35:42.655Z,99.70
2022-09-28T02:38:11.319Z,99.30
2022-09-28T02:40:39.689Z,99.96
2022-09-28T02:43:13.116Z,99.68
2022-09-28T02:45:49.002Z,99.51
2022-09-28T02:48:41.264Z,99.15
2022-09-28T02:51:16.384Z,99.15
2022-09-28T02:53:54.385Z,99.09
2022-09-28T02:56:34.324Z,99.44
2022-09-28T02:59:07.923Z,99.04
2022-09-28T03:01:41.992Z,98.71
2022-09-28T03:04:13.299Z,99.19
2022-09-28T03:06:44.805Z,98.80
2022-09-28T03:09:18.689Z,99.20
2022-09-28T03:11:48.548Z,98.91
2022-09-28T03:14:16.896Z,98.96
2022-09-28T03:16:46.459Z,99.05
2022-09-28T03:19:15.100Z,98.78
2022-09-28T03:21:43.106Z,98.67
2022-09-28T03:24:11.375Z,98.71
2022-09-28T03:26:39.436Z,99.12
2022-09-28T03:29:07.652Z,98.80
2022-09-28T03:31:36.028Z,98.74
2022-09-28T03:34:05.353Z,98.64
2022-09-28T03:36:33.193Z,98.69
2022-09-28T03:39:01.118Z,99.26
2022-09-28T03:41:29.152Z,98.91
2022-09-28T03:43:57.007Z,98.90
2022-09-28T03:46:24.826Z,98.98
2022-09-28T03:48:52.616Z,99.01
2022-09-28T03:51:21.755Z,98.54
2022-09-28T03:53:49.699Z,98.79
2022-09-28T03:56:17.709Z,98.53
2022-09-28T03:58:45.567Z,98.41
2022-09-28T04:01:17.499Z,98.62
2022-09-28T04:03:46.188Z,97.87
2022-09-28T04:06:14.329Z,98.10
2022-09-28T04:08:44.091Z,98.08
2022-09-28T04:11:12.308Z,98.30
2022-09-28T04:13:40.294Z,98.10
2022-09-28T04:16:08.429Z,98.20
2022-09-28T04:18:36.373Z,98.11
2022-09-28T04:21:06.587Z,98.20
2022-09-28T04:23:34.812Z,98.15
2022-09-28T04:26:04.472Z,97.46
2022-09-28T04:28:50.185Z,97.54
2022-09-28T04:31:19.236Z,97.46
2022-09-28T04:33:47.315Z,97.81
2022-09-28T04:36:15.126Z,97.99
2022-09-28T04:38:53.283Z,97.33
2022-09-28T04:41:23.138Z,97.77
2022-09-28T04:43:51.144Z,97.53
2022-09-28T04:46:19.471Z,97.33
2022-09-28T04:48:47.327Z,97.66
2022-09-28T04:51:15.374Z,96.86
2022-09-28T04:53:43.319Z,97.27
2022-09-28T04:56:12.158Z,97.09
2022-09-28T04:58:41.735Z,96.57
2022-09-28T05:01:11.733Z,96.42
2022-09-28T05:03:39.626Z,96.97
2022-09-28T05:06:07.963Z,96.56
2022-09-28T05:08:36.259Z,97.15
2022-09-28T05:11:05.402Z,96.79
2022-09-28T05:13:35.544Z,96.63
2022-09-28T05:16:05.715Z,96.95
2022-09-28T05:18:33.754Z,97.05
2022-09-28T05:21:02.000Z,96.52
2022-09-28T05:23:29.810Z,96.62
2022-09-28T05:25:57.700Z,96.75
2022-09-28T05:28:27.111Z,96.81
2022-09-28T05:30:58.948Z,96.37
2022-09-28T05:33:28.703Z,96.46
2022-09-28T05:36:00.883Z,96.56
2022-09-28T05:38:29.725Z,96.45
2022-09-28T05:40:57.659Z,96.70
2022-09-28T05:43:25.560Z,96.52
2022-09-28T05:45:55.851Z,96.29
2022-09-28T05:48:31.432Z,95.60
2022-09-28T05:51:00.753Z,95.17
2022-09-28T05:53:28.564Z,95.56
2022-09-28T05:56:00.763Z,95.60
2022-09-28T05:58:29.060Z,95.38
2022-09-28T06:00:59.380Z,95.41
2022-09-28T06:03:27.237Z,95.57
2022-09-28T06:05:55.114Z,95.62
2022-09-28T06:08:24.304Z,95.78
2022-09-28T06:10:52.323Z,95.40
2022-09-28T06:13:20.625Z,94.22
2022-09-28T06:15:48.450Z,93.21
2022-09-28T06:18:16.260Z,92.08
2022-09-28T06:20:44.146Z,91.33
2022-09-28T06:23:12.709Z,90.37
2022-09-28T06:25:42.255Z,90.11
2022-09-28T06:28:11.237Z,90.62
2022-09-28T06:30:39.477Z,90.02
2022-09-28T06:33:08.352Z,90.15
2022-09-28T06:35:36.374Z,90.34
2022-09-28T06:38:04.154Z,90.17
2022-09-28T06:40:32.373Z,89.87
2022-09-28T06:43:02.568Z,89.77
2022-09-28T06:45:31.080Z,89.17
2022-09-28T06:47:59.916Z,89.10
2022-09-28T06:50:28.512Z,89.61
2022-09-28T06:52:57.090Z,89.20
2022-09-28T06:55:25.667Z,89.85
2022-09-28T06:58:05.150Z,89.49
2022-09-28T07:00:34.581Z,89.94
2022-09-28T07:03:03.075Z,89.53
2022-09-28T07:05:34.742Z,89.50
2022-09-28T07:08:03.397Z,89.52
2022-09-28T07:10:31.885Z,90.06
2022-09-28T07:13:02.493Z,89.75
2022-09-28T07:15:32.156Z,89.86
2022-09-28T07:18:03.343Z,89.51
2022-09-28T07:20:40.783Z,89.72
2022-09-28T07:23:18.812Z,90.08
2022-09-28T07:25:50.144Z,90.18
2022-09-28T07:28:18.157Z,90.04
2022-09-28T07:30:47.554Z,90.00
2022-09-28T07:33:16.071Z,90.31
2022-09-28T07:35:50.866Z,90.06
2022-09-28T07:38:19.346Z,89.73
2022-09-28T07:41:05.280Z,89.61
2022-09-28T07:43:33.535Z,88.31
2022-09-28T07:46:03.335Z,88.71
2022-09-28T07:48:37.686Z,88.94
2022-09-28T07:51:05.818Z,89.10
2022-09-28T07:53:33.668Z,88.61
2022-09-28T07:56:05.621Z,88.17
2022-09-28T07:58:34.237Z,88.54
2022-09-28T08:01:06.416Z,88.05
2022-09-28T08:03:34.906Z,87.80
2022-09-28T08:06:03.769Z,87.02
2022-09-28T08:08:31.648Z,87.78
2022-09-28T08:10:59.526Z,87.11
2022-09-28T08:13:27.515Z,86.98
2022-09-28T08:15:56.448Z,86.58
2022-09-28T08:18:25.629Z,86.47
2022-09-28T08:21:10.774Z,85.60
2022-09-28T08:23:38.834Z,85.32
2022-09-28T08:26:07.129Z,85.35
2022-09-28T08:28:36.599Z,85.05
2022-09-28T08:31:07.390Z,84.20
2022-09-28T08:33:36.809Z,83.67
2022-09-28T08:36:05.973Z,82.14
2022-09-28T08:38:33.802Z,81.81
2022-09-28T08:41:05.129Z,81.99
2022-09-28T08:43:42.564Z,82.73
2022-09-28T08:46:12.516Z,81.52
2022-09-28T08:49:13.448Z,80.31
2022-09-28T08:51:44.715Z,79.55
2022-09-28T08:54:18.774Z,79.60
2022-09-28T08:56:49.788Z,79.77
2022-09-28T08:59:19.781Z,78.74
2022-09-28T09:01:49.209Z,77.70
2022-09-28T09:04:18.830Z,76.35
2022-09-28T09:06:55.966Z,76.09
2022-09-28T09:09:31.200Z,73.91
2022-09-28T09:12:05.465Z,71.55
2022-09-28T09:14:51.306Z,71.53
2022-09-28T09:17:23.722Z,70.88
2022-09-28T09:19:55.120Z,69.36
2022-09-28T09:22:29.468Z,67.00
2022-09-28T09:25:02.613Z,67.91
2022-09-28T09:27:52.018Z,68.60
2022-09-28T09:30:21.931Z,69.84
2022-09-28T09:33:08.251Z,69.97
2022-09-28T09:35:54.144Z,67.79
2022-09-28T09:38:38.923Z,67.90
2022-09-28T09:41:14.840Z,68.14
2022-09-28T09:43:58.616Z,67.92
2022-09-28T09:46:33.291Z,68.31
2022-09-28T09:49:06.421Z,69.34
2022-09-28T09:51:38.800Z,69.11
2022-09-28T09:54:13.519Z,68.15
2022-09-28T09:56:44.770Z,68.04
2022-09-28T09:59:15.023Z,67.45
2022-09-28T10:01:43.213Z,67.58
2022-09-28T10:04:16.530Z,65.80
2022-09-28T10:06:44.671Z,65.64
2022-09-28T10:09:18.588Z,64.08
2022-09-28T10:11:49.814Z,60.13
2022-09-28T10:14:19.972Z,55.03
2022-09-28T10:16:49.000Z,52.39
2022-09-28T10:19:17.714Z,46.46
2022-09-28T10:21:46.839Z,45.71
2022-09-28T10:24:19.434Z,45.27
2022-09-28T10:26:49.611Z,39.91
2022-09-28T10:29:18.426Z,37.63
2022-09-28T10:31:48.206Z,39.03
2022-09-28T10:34:17.421Z,43.24
2022-09-28T10:36:47.737Z,44.34
2022-09-28T10:39:36.139Z,42.78
2022-09-28T10:42:07.125Z,34.38
2022-09-28T10:44:36.220Z,39.34
2022-09-28T10:47:07.902Z,43.62
2022-09-28T10:49:43.206Z,43.65
2022-09-28T10:52:33.301Z,42.76
2022-09-28T10:55:03.029Z,44.70
2022-09-28T10:57:34.528Z,46.04
2022-09-28T11:00:03.258Z,46.82
2022-09-28T11:02:35.676Z,48.36
2022-09-28T11:05:05.610Z,48.66
2022-09-28T11:07:34.905Z,46.32
2022-09-28T11:10:04.334Z,44.90
2022-09-28T11:12:36.373Z,45.66
2022-09-28T11:15:06.637Z,45.91
2022-09-28T11:17:38.493Z,45.12
2022-09-28T11:20:29.171Z,42.35
2022-09-28T11:22:57.762Z,40.57
2022-09-28T11:25:28.857Z,40.57
2022-09-28T11:27:57.993Z,40.50
2022-09-28T11:30:27.917Z,44.13
2022-09-28T11:32:57.914Z,45.32
2022-09-28T11:35:29.040Z,47.19
2022-09-28T11:38:05.529Z,50.90
2022-09-28T11:40:44.675Z,52.20
2022-09-28T11:43:19.936Z,54.26
2022-09-28T11:45:52.592Z,56.30
2022-09-28T11:48:24.427Z,60.14
2022-09-28T11:50:53.981Z,62.99
2022-09-28T11:53:24.271Z,65.78
2022-09-28T11:55:55.944Z,66.61
2022-09-28T11:58:28.703Z,66.07
2022-09-28T12:01:00.488Z,62.63
2022-09-28T12:03:32.112Z,57.18
2022-09-28T12:06:01.690Z,51.17
2022-09-28T12:08:31.015Z,52.46
2022-09-28T12:11:02.202Z,55.07
2022-09-28T12:13:34.256Z,58.38
2022-09-28T12:18:54.362Z,61.38
2022-09-28T12:21:33.185Z,62.54
2022-09-28T12:24:04.536Z,62.15
2022-09-28T12:26:38.127Z,63.52
2022-09-28T12:29:07.924Z,52.49
2022-09-28T12:31:38.660Z,35.32
2022-09-28T12:34:06.624Z,30.83
2022-09-28T12:36:42.205Z,32.53
2022-09-28T12:39:30.714Z,36.01
2022-09-28T12:42:14.360Z,42.82
2022-09-28T12:44:48.332Z,45.64
2022-09-28T12:47:27.937Z,51.74
2022-09-28T12:53:08.313Z,56.21
2022-09-28T12:55:56.483Z,57.41
2022-09-28T12:58:43.207Z,62.31
2022-09-28T13:01:21.934Z,62.81
2022-09-28T13:04:03.769Z,63.29
2022-09-28T13:06:38.805Z,62.08
2022-09-28T13:09:19.888Z,58.58
2022-09-28T13:11:56.229Z,46.65
2022-09-28T13:14:34.396Z,45.80
2022-09-28T13:17:06.006Z,49.57
2022-09-28T13:19:36.199Z,53.95
2022-09-28T13:22:10.466Z,55.03
2022-09-28T13:24:43.748Z,56.06
2022-09-28T13:27:15.157Z,51.03
2022-09-28T13:29:44.053Z,41.97
2022-09-28T13:32:13.869Z,35.87
2022-09-28T13:34:41.695Z,37.33
2022-09-28T13:37:11.215Z,41.38
2022-09-28T13:39:48.640Z,44.22
2022-09-28T13:42:25.503Z,43.79
2022-09-28T13:45:02.924Z,38.17
2022-09-28T13:47:50.353Z,35.88
2022-09-28T13:50:22.082Z,35.61
2022-09-28T13:52:53.084Z,39.26
2022-09-28T13:55:27.222Z,37.51
2022-09-28T13:57:56.881Z,36.91
2022-09-28T14:00:28.139Z,38.38
2022-09-28T14:03:01.490Z,38.35
2022-09-28T14:05:36.806Z,33.32
2022-09-28T14:08:25.740Z,34.00
2022-09-28T14:10:54.345Z,41.25
2022-09-28T14:13:40.824Z,45.12
2022-09-28T14:16:22.022Z,47.32
2022-09-28T14:18:53.303Z,49.84
2022-09-28T14:21:29.389Z,53.01
2022-09-28T14:24:04.546Z,55.14
2022-09-28T14:26:47.377Z,56.60
2022-09-28T14:29:28.665Z,57.46
2022-09-28T14:31:58.184Z,59.36
2022-09-28T14:34:32.122Z,60.35
2022-09-28T14:37:18.468Z,61.46
2022-09-28T14:40:04.741Z,61.72
2022-09-28T14:42:32.791Z,62.02
2022-09-28T14:45:19.919Z,60.77
2022-09-28T14:48:06.332Z,61.05
2022-09-28T14:50:35.678Z,61.39
2022-09-28T14:53:05.438Z,63.04
2022-09-28T14:55:35.769Z,62.08
2022-09-28T14:58:04.317Z,60.34
2022-09-28T15:00:32.241Z,58.43
2022-09-28T15:03:01.606Z,60.29
2022-09-28T15:05:31.466Z,61.66
2022-09-28T15:08:01.774Z,62.12
2022-09-28T15:10:32.333Z,63.33
2022-09-28T15:13:02.233Z,64.00
2022-09-28T15:15:32.855Z,64.48
2022-09-28T15:18:28.391Z,64.79
2022-09-28T15:20:56.686Z,67.34
2022-09-28T15:23:27.576Z,67.69
2022-09-28T15:25:55.974Z,67.50
2022-09-28T15:28:25.095Z,67.81
2022-09-28T15:30:59.665Z,68.64
2022-09-28T15:33:51.313Z,67.91
2022-09-28T15:36:21.305Z,68.85
2022-09-28T15:38:54.832Z,68.88
2022-09-28T15:41:24.849Z,68.55
2022-09-28T15:44:08.389Z,67.86
2022-09-28T15:46:37.887Z,67.44
2022-09-28T15:49:06.076Z,65.55
2022-09-28T15:51:46.828Z,65.98
2022-09-28T15:54:19.542Z,65.23
2022-09-28T15:56:52.285Z,65.09
2022-09-28T15:59:26.159Z,65.45
2022-09-28T16:02:08.073Z,66.25
2022-09-28T16:04:38.302Z,67.18
2022-09-28T16:07:17.978Z,67.10
2022-09-28T16:09:58.513Z,67.79
2022-09-28T16:12:31.796Z,67.94
2022-09-28T16:15:04.403Z,69.30
2022-09-28T16:17:33.529Z,69.33
2022-09-28T16:20:03.132Z,69.78
2022-09-28T16:22:32.658Z,70.12
2022-09-28T16:25:02.181Z,71.43
2022-09-28T16:27:31.751Z,71.52
2022-09-28T16:30:05.109Z,71.94
2022-09-28T16:32:37.504Z,72.50
2022-09-28T16:35:22.068Z,72.54
2022-09-28T16:37:55.546Z,72.65
2022-09-28T16:40:24.901Z,73.14
2022-09-28T16:42:55.081Z,72.73
2022-09-28T16:45:24.270Z,73.31
2022-09-28T16:47:52.981Z,73.82
2022-09-28T16:50:21.629Z,73.87
2022-09-28T16:53:07.694Z,73.62
2022-09-28T16:55:40.862Z,73.84
2022-09-28T16:58:09.352Z,74.04
2022-09-28T17:00:37.181Z,74.01
2022-09-28T17:03:12.082Z,74.94
2022-09-28T17:05:40.142Z,74.71
2022-09-28T17:08:08.132Z,74.40
2022-09-28T17:11:02.108Z,74.76
2022-09-28T17:13:31.299Z,75.13
2022-09-28T17:15:59.130Z,75.45
2022-09-28T17:18:26.950Z,75.64
2022-09-28T17:20:56.661Z,76.19
2022-09-28T17:23:24.561Z,76.23
2022-09-28T17:25:55.520Z,76.57
2022-09-28T17:28:25.043Z,76.51
2022-09-28T17:30:53.077Z,76.90
2022-09-28T17:33:21.238Z,76.70
2022-09-28T17:35:49.271Z,76.81
2022-09-28T17:38:17.246Z,77.00
2022-09-28T17:40:45.472Z,77.15
2022-09-28T17:43:14.778Z,77.52
2022-09-28T17:45:42.609Z,77.34
2022-09-28T17:48:13.217Z,77.34
2022-09-28T17:50:46.241Z,77.36
2022-09-28T17:53:15.033Z,77.65
2022-09-28T17:55:43.894Z,77.94
2022-09-28T17:58:17.903Z,78.02
2022-09-28T18:00:46.832Z,77.78
2022-09-28T18:03:16.398Z,77.63
2022-09-28T18:05:44.457Z,77.96
2022-09-28T18:08:14.139Z,77.79
2022-09-28T18:10:42.010Z,78.08
2022-09-28T18:13:10.265Z,78.57
2022-09-28T18:15:39.548Z,78.21
2022-09-28T18:18:09.422Z,78.72
2022-09-28T18:20:37.588Z,79.06
2022-09-28T18:23:05.926Z,79.07
2022-09-28T18:25:33.987Z,79.56
2022-09-28T18:28:02.090Z,79.76
2022-09-28T18:30:29.910Z,79.75
2022-09-28T18:32:59.041Z,79.97
2022-09-28T18:35:26.843Z,79.53
2022-09-28T18:37:54.773Z,79.91
2022-09-28T18:40:22.760Z,79.88
2022-09-28T18:42:50.686Z,80.10
2022-09-28T18:45:18.858Z,80.22
2022-09-28T18:47:46.787Z,80.15
2022-09-28T18:50:16.258Z,80.55
2022-09-28T18:52:45.147Z,81.00
2022-09-28T18:55:13.229Z,81.15
2022-09-28T18:57:41.205Z,81.61
2022-09-28T19:00:10.266Z,81.66
2022-09-28T19:02:38.731Z,81.94
2022-09-28T19:05:07.095Z,82.59
2022-09-28T19:07:36.225Z,82.60
2022-09-28T19:10:04.278Z,82.72
2022-09-28T19:12:33.013Z,83.08
2022-09-28T19:15:00.972Z,83.42
2022-09-28T19:17:29.007Z,83.85
2022-09-28T19:19:56.797Z,84.66
2022-09-28T19:22:24.551Z,84.52
2022-09-28T19:24:53.706Z,84.82
2022-09-28T19:27:21.668Z,84.99
2022-09-28T19:29:50.349Z,84.71
2022-09-28T19:32:18.136Z,85.07
2022-09-28T19:34:45.907Z,85.30
2022-09-28T19:37:13.654Z,85.87
2022-09-28T19:39:41.596Z,86.19
2022-09-28T19:42:10.709Z,86.74
2022-09-28T19:44:39.144Z,87.08
2022-09-28T19:47:08.790Z,87.00
2022-09-28T19:49:37.589Z,87.17
2022-09-28T19:52:15.336Z,87.41
2022-09-28T19:54:44.782Z,87.90
2022-09-28T19:57:15.577Z,88.49
2022-09-28T19:59:43.376Z,88.94
2022-09-28T20:02:11.488Z,89.32
2022-09-28T20:04:39.265Z,89.03
2022-09-28T20:07:07.183Z,88.93
2022-09-28T20:09:34.969Z,88.99
2022-09-28T20:12:03.026Z,88.90
2022-09-28T20:14:38.025Z,88.48
2022-09-28T20:17:07.475Z,88.22
2022-09-28T20:19:35.972Z,88.48
2022-09-28T20:22:03.929Z,88.38
2022-09-28T20:24:32.013Z,88.82
2022-09-28T20:27:01.110Z,88.90
2022-09-28T20:29:29.174Z,89.15
2022-09-28T20:31:58.878Z,90.45
2022-09-28T20:34:26.722Z,90.35
2022-09-28T20:36:54.498Z,91.35
2022-09-28T20:39:22.249Z,91.03
2022-09-28T20:41:50.185Z,91.14
2022-09-28T20:44:18.100Z,91.40
2022-09-28T20:46:46.139Z,91.45
2022-09-28T20:49:15.294Z,91.53
2022-09-28T20:51:43.087Z,91.84
2022-09-28T20:54:10.983Z,92.35
2022-09-28T20:56:39.189Z,92.45
2022-09-28T20:59:08.134Z,92.90
2022-09-28T21:01:36.302Z,93.35
2022-09-28T21:04:05.508Z,93.29
2022-09-28T21:06:35.707Z,93.20
2022-09-28T21:09:04.142Z,93.16
2022-09-28T21:11:32.086Z,93.24
2022-09-28T21:14:01.005Z,93.35
2022-09-28T21:16:29.491Z,93.90
2022-09-28T21:18:57.419Z,93.14
2022-09-28T21:21:25.625Z,92.77
2022-09-28T21:23:55.120Z,92.79
2022-09-28T21:26:25.628Z,93.07
2022-09-28T21:28:53.804Z,92.73
2022-09-28T21:31:27.528Z,92.55
2022-09-28T21:33:56.354Z,92.39
2022-09-28T21:36:24.404Z,92.13
2022-09-28T21:38:52.207Z,91.78
2022-09-28T21:41:21.366Z,91.77
2022-09-28T21:43:49.239Z,92.07
2022-09-28T21:46:17.535Z,92.59
2022-09-28T21:48:45.472Z,92.45
2022-09-28T21:51:14.565Z,93.16
2022-09-28T21:53:42.535Z,92.87
2022-09-28T21:56:11.317Z,92.58
2022-09-28T21:58:40.782Z,93.03
2022-09-28T22:01:09.721Z,92.46
2022-09-28T22:03:37.649Z,92.61
2022-09-28T22:06:05.979Z,92.55
2022-09-28T22:08:34.263Z,92.89
2022-09-28T22:11:03.247Z,92.78
2022-09-28T22:13:31.957Z,93.41
2022-09-28T22:16:01.390Z,93.44
2022-09-28T22:18:30.432Z,93.66
2022-09-28T22:21:01.477Z,93.84
2022-09-28T22:23:29.842Z,94.05
2022-09-28T22:26:01.113Z,93.86
2022-09-28T22:28:29.664Z,94.14
2022-09-28T22:30:57.954Z,94.00
2022-09-28T22:33:27.387Z,94.41
2022-09-28T22:35:55.622Z,94.43
2022-09-28T22:38:24.369Z,94.71
2022-09-28T22:40:54.412Z,94.16
2022-09-28T22:43:23.278Z,94.76
2022-09-28T22:45:51.209Z,94.54
2022-09-28T22:48:18.999Z,94.39
2022-09-28T22:50:51.780Z,94.82
2022-09-28T22:53:19.992Z,94.41
2022-09-28T22:55:47.750Z,95.03
2022-09-28T22:58:15.659Z,94.61
2022-09-28T23:00:44.390Z,94.84
2022-09-28T23:03:12.330Z,95.07
2022-09-28T23:05:40.345Z,94.93
2022-09-28T23:08:10.478Z,95.49
2022-09-28T23:10:38.284Z,95.02
2022-09-28T23:13:06.025Z,95.58
2022-09-28T23:15:33.780Z,95.46
2022-09-28T23:18:01.692Z,95.86
2022-09-28T23:20:29.480Z,95.67
2022-09-28T23:22:57.281Z,95.96
2022-09-28T23:25:26.504Z,95.85
2022-09-28T23:27:54.253Z,95.75
2022-09-28T23:30:22.947Z,95.88
2022-09-28T23:32:52.323Z,95.92
2022-09-28T23:35:20.131Z,96.42
2022-09-28T23:37:50.202Z,95.93
2022-09-28T23:40:18.132Z,96.31
2022-09-28T23:42:47.418Z,96.14
2022-09-28T23:45:15.208Z,96.31
2022-09-28T23:47:42.983Z,96.51
2022-09-28T23:50:10.745Z,96.30
2022-09-28T23:52:38.530Z,96.32
2022-09-28T23:55:06.926Z,96.52
2022-09-28T23:57:34.793Z,96.51
